createdAt,value
2018-04-06T00:00:58.093Z,7.10
2018-04-06T00:01:58.044Z,6.60
2018-04-06T00:02:58.024Z,6.50
2018-04-06T00:03:58.014Z,6.30
2018-04-06T00:04:58.020Z,6.10
2018-04-06T00:05:58.039Z,6.20
2018-04-06T00:06:58.014Z,6.60
2018-04-06T00:07:58.728Z,6.80
2018-04-06T00:08:58.069Z,5.80
2018-04-06T00:09:58.079Z,6.30
2018-04-06T00:10:58.032Z,6.00
2018-04-06T00:11:58.012Z,6.20
2018-04-06T00:12:58.046Z,5.30
2018-04-06T00:13:58.003Z,6.20
2018-04-06T00:14:57.999Z,5.70
2018-04-06T00:15:58.025Z,6.20
2018-04-06T00:16:58.026Z,6.60
2018-04-06T00:17:58.020Z,5.80
2018-04-06T00:18:58.060Z,5.90
2018-04-06T00:19:58.010Z,6.00
2018-04-06T00:20:58.023Z,6.20
2018-04-06T00:21:58.011Z,7.00
2018-04-06T00:22:58.035Z,6.30
2018-04-06T00:23:58.024Z,6.00
2018-04-06T00:24:58.059Z,5.90
2018-04-06T00:25:57.977Z,6.60
2018-04-06T00:26:57.986Z,6.10
2018-04-06T00:27:57.980Z,6.10
2018-04-06T00:28:58.054Z,6.80
2018-04-06T00:29:57.981Z,6.00
2018-04-06T00:30:58.009Z,6.40
2018-04-06T00:31:57.992Z,5.70
2018-04-06T00:32:58.008Z,5.90
2018-04-06T00:33:58.004Z,6.00
2018-04-06T00:34:57.998Z,5.50
2018-04-06T00:35:57.971Z,6.30
2018-04-06T00:36:57.971Z,5.60
2018-04-06T00:37:58.053Z,5.80
2018-04-06T00:38:57.968Z,5.90
2018-04-06T00:39:57.971Z,5.90
2018-04-06T00:40:58.078Z,6.20
2018-04-06T00:41:58.126Z,6.20
2018-04-06T00:42:57.966Z,6.00
2018-04-06T00:43:57.983Z,6.20
2018-04-06T00:44:57.990Z,6.20
2018-04-06T00:45:57.965Z,5.50
2018-04-06T00:46:57.958Z,6.30
2018-04-06T00:47:57.943Z,6.00
2018-04-06T00:48:57.983Z,5.90
2018-04-06T00:49:57.996Z,6.30
2018-04-06T00:50:57.940Z,6.40
2018-04-06T00:51:57.960Z,6.60
2018-04-06T00:52:57.950Z,7.30
2018-04-06T00:53:57.956Z,5.80
2018-04-06T00:54:57.933Z,6.20
2018-04-06T00:55:57.954Z,6.40
2018-04-06T00:56:57.920Z,5.90
2018-04-06T00:57:57.960Z,6.00
2018-04-06T00:58:57.939Z,6.10
2018-04-06T00:59:57.973Z,6.00
2018-04-06T01:00:57.936Z,6.50
2018-04-06T01:01:57.945Z,5.70
2018-04-06T01:02:57.969Z,6.10
2018-04-06T01:03:57.912Z,6.10
2018-04-06T01:04:57.913Z,6.20
2018-04-06T01:05:57.978Z,6.40
2018-04-06T01:06:57.942Z,6.40
2018-04-06T01:07:57.941Z,6.20
2018-04-06T01:08:57.929Z,6.40
2018-04-06T01:09:57.929Z,6.30
2018-04-06T01:10:57.901Z,6.20
2018-04-06T01:11:57.929Z,6.70
2018-04-06T01:12:58.744Z,6.20
2018-04-06T01:13:57.896Z,6.30
2018-04-06T01:14:57.953Z,6.50
2018-04-06T01:15:57.898Z,7.10
2018-04-06T01:16:57.926Z,5.90
2018-04-06T01:17:57.882Z,6.30
2018-04-06T01:18:57.929Z,6.60
2018-04-06T01:19:57.904Z,6.30
2018-04-06T01:20:57.874Z,6.40
2018-04-06T01:21:57.881Z,6.70
2018-04-06T01:22:57.884Z,6.20
2018-04-06T01:23:57.878Z,7.10
2018-04-06T01:24:57.917Z,6.80
2018-04-06T01:25:58.740Z,7.40
2018-04-06T01:26:57.867Z,6.40
2018-04-06T01:27:57.902Z,6.80
2018-04-06T01:28:57.869Z,6.70
2018-04-06T01:29:57.878Z,7.10
2018-04-06T01:30:57.884Z,6.40
2018-04-06T01:31:57.886Z,7.00
2018-04-06T01:32:57.847Z,6.80
2018-04-06T01:33:57.900Z,6.60
2018-04-06T01:34:57.845Z,6.70
2018-04-06T01:35:57.905Z,6.80
2018-04-06T01:36:57.880Z,6.40
2018-04-06T01:37:57.869Z,6.70
2018-04-06T01:38:57.852Z,5.80
2018-04-06T01:39:57.864Z,7.30
2018-04-06T01:40:57.842Z,6.40
2018-04-06T01:41:57.884Z,7.00
2018-04-06T01:42:57.870Z,6.30
2018-04-06T01:43:57.847Z,6.00
2018-04-06T01:44:57.836Z,5.90
2018-04-06T01:45:57.824Z,6.20
2018-04-06T01:46:57.828Z,6.50
2018-04-06T01:47:57.845Z,6.20
2018-04-06T01:48:57.882Z,6.40
2018-04-06T01:49:57.840Z,6.50
2018-04-06T01:50:57.862Z,6.00
2018-04-06T01:51:57.869Z,6.40
2018-04-06T01:52:57.879Z,6.20
2018-04-06T01:53:57.853Z,6.20
2018-04-06T01:54:57.802Z,5.70
2018-04-06T01:55:57.838Z,5.80
2018-04-06T01:56:57.790Z,6.70
2018-04-06T01:57:57.823Z,6.30
2018-04-06T01:58:57.854Z,6.20
2018-04-06T01:59:57.868Z,6.40
2018-04-06T02:00:57.886Z,6.80
2018-04-06T02:01:57.815Z,6.10
2018-04-06T02:02:57.831Z,6.10
2018-04-06T02:03:57.873Z,5.70
2018-04-06T02:04:57.813Z,6.30
2018-04-06T02:05:57.792Z,5.60
2018-04-06T02:06:57.810Z,6.30
2018-04-06T02:07:57.830Z,6.60
2018-04-06T02:08:57.852Z,6.50
2018-04-06T02:09:57.805Z,6.10
2018-04-06T02:10:57.776Z,6.10
2018-04-06T02:11:57.796Z,6.20
2018-04-06T02:12:57.797Z,6.50
2018-04-06T02:13:57.788Z,6.50
2018-04-06T02:14:57.795Z,6.20
2018-04-06T02:15:57.824Z,5.80
2018-04-06T02:16:57.771Z,5.40
2018-04-06T02:17:57.812Z,5.60
2018-04-06T02:18:57.760Z,5.70
2018-04-06T02:19:57.797Z,5.60
2018-04-06T02:20:57.770Z,5.90
2018-04-06T02:21:57.767Z,5.30
2018-04-06T02:22:57.773Z,6.00
2018-04-06T02:23:57.823Z,5.60
2018-04-06T02:24:57.807Z,5.40
2018-04-06T02:25:57.850Z,5.40
2018-04-06T02:26:57.778Z,5.50
2018-04-06T02:27:57.745Z,6.00
2018-04-06T02:28:57.771Z,5.80
2018-04-06T02:29:57.781Z,6.10
2018-04-06T02:30:57.750Z,5.60
2018-04-06T02:31:57.742Z,5.40
2018-04-06T02:32:57.798Z,5.80
2018-04-06T02:33:57.799Z,5.90
2018-04-06T02:34:57.749Z,6.00
2018-04-06T02:35:57.852Z,5.40
2018-04-06T02:36:57.744Z,5.90
2018-04-06T02:37:57.749Z,6.10
2018-04-06T02:38:57.768Z,5.50
2018-04-06T02:39:57.764Z,6.10
2018-04-06T02:40:57.805Z,5.80
2018-04-06T02:41:58.269Z,6.50
2018-04-06T02:42:57.778Z,6.90
2018-04-06T02:43:57.873Z,7.50
2018-04-06T02:44:57.752Z,8.30
2018-04-06T02:45:57.759Z,7.80
2018-04-06T02:46:57.728Z,7.50
2018-04-06T02:47:57.702Z,8.50
2018-04-06T02:48:57.802Z,7.80
2018-04-06T02:49:57.692Z,8.10
2018-04-06T02:50:57.700Z,7.60
2018-04-06T02:51:57.713Z,7.40
2018-04-06T02:52:57.733Z,8.00
2018-04-06T02:53:57.703Z,8.60
2018-04-06T02:54:57.747Z,7.60
2018-04-06T02:55:57.746Z,7.90
2018-04-06T02:56:57.760Z,7.00
2018-04-06T02:57:57.721Z,7.20
2018-04-06T02:58:57.685Z,7.20
2018-04-06T02:59:57.725Z,6.50
2018-04-06T03:00:57.709Z,7.40
2018-04-06T03:01:57.674Z,6.60
2018-04-06T03:02:57.687Z,7.00
2018-04-06T03:03:57.708Z,6.30
2018-04-06T03:04:57.737Z,7.00
2018-04-06T03:05:57.678Z,7.20
2018-04-06T03:06:57.672Z,7.00
2018-04-06T03:07:57.709Z,6.30
2018-04-06T03:08:57.676Z,6.80
2018-04-06T03:09:57.772Z,7.10
2018-04-06T03:10:57.689Z,6.40
2018-04-06T03:11:57.669Z,7.10
2018-04-06T03:12:57.696Z,7.20
2018-04-06T03:13:57.647Z,6.70
2018-04-06T03:14:57.698Z,6.60
2018-04-06T03:15:57.662Z,6.50
2018-04-06T03:16:57.665Z,7.10
2018-04-06T03:17:57.679Z,6.50
2018-04-06T03:18:57.661Z,6.90
2018-04-06T03:19:57.656Z,7.60
2018-04-06T03:20:57.651Z,6.70
2018-04-06T03:21:57.624Z,7.60
2018-04-06T03:22:58.255Z,6.90
2018-04-06T03:23:57.640Z,6.90
2018-04-06T03:24:57.668Z,6.80
2018-04-06T03:25:57.654Z,6.90
2018-04-06T03:26:57.618Z,7.30
2018-04-06T03:27:57.697Z,7.20
2018-04-06T03:28:57.634Z,6.90
2018-04-06T03:29:57.643Z,7.00
2018-04-06T03:30:57.636Z,6.90
2018-04-06T03:31:57.643Z,7.30
2018-04-06T03:32:57.598Z,6.90
2018-04-06T03:33:57.598Z,7.30
2018-04-06T03:34:57.588Z,7.70
2018-04-06T03:35:57.642Z,6.90
2018-04-06T03:36:57.592Z,7.00
2018-04-06T03:37:57.660Z,7.20
2018-04-06T03:38:57.611Z,6.80
2018-04-06T03:39:57.632Z,7.00
2018-04-06T03:40:57.613Z,7.70
2018-04-06T03:41:57.727Z,7.60
2018-04-06T03:42:57.594Z,7.10
2018-04-06T03:43:57.652Z,7.20
2018-04-06T03:44:57.570Z,7.70
2018-04-06T03:45:57.581Z,7.70
2018-04-06T03:46:57.572Z,8.20
2018-04-06T03:47:57.574Z,7.60
2018-04-06T03:48:57.617Z,7.70
2018-04-06T03:49:57.690Z,7.80
2018-04-06T03:50:57.586Z,7.70
2018-04-06T03:51:57.686Z,8.90
2018-04-06T03:52:57.583Z,8.40
2018-04-06T03:53:57.609Z,7.90
2018-04-06T03:54:57.554Z,8.40
2018-04-06T03:55:57.612Z,9.00
2018-04-06T03:56:57.563Z,8.60
2018-04-06T03:57:57.540Z,8.80
2018-04-06T03:58:57.557Z,9.00
2018-04-06T03:59:57.533Z,8.90
2018-04-06T04:00:57.585Z,8.50
2018-04-06T04:01:57.550Z,8.50
2018-04-06T04:02:57.538Z,9.00
2018-04-06T04:03:57.580Z,9.40
2018-04-06T04:04:57.552Z,8.80
2018-04-06T04:05:57.526Z,9.30
2018-04-06T04:06:57.513Z,8.90
2018-04-06T04:07:57.588Z,9.20
2018-04-06T04:08:57.544Z,9.00
2018-04-06T04:09:57.591Z,9.00
2018-04-06T04:10:57.538Z,8.40
2018-04-06T04:11:57.633Z,9.40
2018-04-06T04:12:57.507Z,9.30
2018-04-06T04:13:57.538Z,9.20
2018-04-06T04:14:57.488Z,10.00
2018-04-06T04:15:57.537Z,9.20
2018-04-06T04:16:57.502Z,8.80
2018-04-06T04:17:57.489Z,9.60
2018-04-06T04:18:57.525Z,9.70
2018-04-06T04:19:57.537Z,9.60
2018-04-06T04:20:57.477Z,8.50
2018-04-06T04:21:57.505Z,9.00
2018-04-06T04:22:57.499Z,8.80
2018-04-06T04:23:57.528Z,8.30
2018-04-06T04:24:57.542Z,9.50
2018-04-06T04:25:57.494Z,9.10
2018-04-06T04:26:57.468Z,8.50
2018-04-06T04:27:57.498Z,9.60
2018-04-06T04:28:57.537Z,9.20
2018-04-06T04:29:57.458Z,9.80
2018-04-06T04:30:57.494Z,9.80
2018-04-06T04:31:57.505Z,9.10
2018-04-06T04:32:57.573Z,9.50
2018-04-06T04:33:57.461Z,9.30
2018-04-06T04:34:57.475Z,9.70
2018-04-06T04:35:57.506Z,9.30
2018-04-06T04:36:57.486Z,9.90
2018-04-06T04:37:57.448Z,8.50
2018-04-06T04:38:57.453Z,9.10
2018-04-06T04:39:57.482Z,9.10
2018-04-06T04:40:57.456Z,9.30
2018-04-06T04:41:57.429Z,8.80
2018-04-06T04:42:57.464Z,8.80
2018-04-06T04:43:57.447Z,8.80
2018-04-06T04:44:57.485Z,9.00
2018-04-06T04:45:57.431Z,9.30
2018-04-06T04:46:57.447Z,8.70
2018-04-06T04:47:57.470Z,9.90
2018-04-06T04:48:57.414Z,8.70
2018-04-06T04:49:57.436Z,8.20
2018-04-06T04:50:57.539Z,9.00
2018-04-06T04:51:57.416Z,9.30
2018-04-06T04:52:57.415Z,9.90
2018-04-06T04:53:57.434Z,9.10
2018-04-06T04:54:57.443Z,9.10
2018-04-06T04:55:57.412Z,8.80
2018-04-06T04:56:57.455Z,9.30
2018-04-06T04:57:57.431Z,9.60
2018-04-06T04:58:57.450Z,9.40
2018-04-06T04:59:57.446Z,9.30
2018-04-06T05:00:57.445Z,8.80
2018-04-06T05:01:57.372Z,9.40
2018-04-06T05:02:57.391Z,9.90
2018-04-06T05:03:57.426Z,9.50
2018-04-06T05:04:57.389Z,8.80
2018-04-06T05:05:57.414Z,8.40
2018-04-06T05:06:57.417Z,8.50
2018-04-06T05:07:57.374Z,8.90
2018-04-06T05:08:57.358Z,8.90
2018-04-06T05:09:57.390Z,8.90
2018-04-06T05:10:57.408Z,9.10
2018-04-06T05:11:57.377Z,8.90
2018-04-06T05:12:57.374Z,8.60
2018-04-06T05:13:57.618Z,9.10
2018-04-06T05:14:57.370Z,8.90
2018-04-06T05:15:57.360Z,10.50
2018-04-06T05:16:57.347Z,9.40
2018-04-06T05:17:57.354Z,8.90
2018-04-06T05:18:57.375Z,8.80
2018-04-06T05:19:57.398Z,9.00
2018-04-06T05:20:57.336Z,9.50
2018-04-06T05:21:57.358Z,8.80
2018-04-06T05:22:57.354Z,8.20
2018-04-06T05:23:57.340Z,9.20
2018-04-06T05:24:57.331Z,8.80
2018-04-06T05:25:57.339Z,8.90
2018-04-06T05:26:57.337Z,8.70
2018-04-06T05:27:57.356Z,8.80
2018-04-06T05:28:57.360Z,8.80
2018-04-06T05:29:57.304Z,8.90
2018-04-06T05:30:57.295Z,9.70
2018-04-06T05:31:57.323Z,8.90
2018-04-06T05:32:57.401Z,8.30
2018-04-06T05:33:57.297Z,9.90
2018-04-06T05:34:57.327Z,9.50
2018-04-06T05:35:57.318Z,9.10
2018-04-06T05:36:57.304Z,8.60
2018-04-06T05:37:57.773Z,8.80
2018-04-06T05:38:57.304Z,8.70
2018-04-06T05:39:57.277Z,7.90
2018-04-06T05:40:57.336Z,8.60
2018-04-06T05:41:57.313Z,9.30
2018-04-06T05:42:57.325Z,8.60
2018-04-06T05:43:57.453Z,7.90
2018-04-06T05:44:57.291Z,8.00
2018-04-06T05:45:57.312Z,8.30
2018-04-06T05:46:57.286Z,8.70
2018-04-06T05:47:57.278Z,9.10
2018-04-06T05:48:57.270Z,7.70
2018-04-06T05:49:57.305Z,8.00
2018-04-06T05:50:57.778Z,8.50
2018-04-06T05:51:57.250Z,9.30
2018-04-06T05:52:57.331Z,9.50
2018-04-06T05:53:57.240Z,8.30
2018-04-06T05:54:57.259Z,8.50
2018-04-06T05:55:57.276Z,7.70
2018-04-06T05:56:57.278Z,8.00
2018-04-06T05:57:57.340Z,8.10
2018-04-06T05:58:57.288Z,8.00
2018-04-06T05:59:57.257Z,7.90
2018-04-06T06:00:57.290Z,7.90
2018-04-06T06:01:57.288Z,8.20
2018-04-06T06:02:57.299Z,7.60
2018-04-06T06:03:57.307Z,7.60
2018-04-06T06:04:57.234Z,7.80
2018-04-06T06:05:57.243Z,7.60
2018-04-06T06:06:57.311Z,7.50
2018-04-06T06:07:57.299Z,8.10
2018-04-06T06:08:57.291Z,6.60
2018-04-06T06:09:57.345Z,7.30
2018-04-06T06:10:57.290Z,8.30
2018-04-06T06:11:57.275Z,7.80
2018-04-06T06:12:57.314Z,7.80
2018-04-06T06:13:57.310Z,7.00
2018-04-06T06:14:57.269Z,7.30
2018-04-06T06:15:57.290Z,8.20
2018-04-06T06:16:57.280Z,6.60
2018-04-06T06:17:57.300Z,7.40
2018-04-06T06:18:57.306Z,6.60
2018-04-06T06:19:57.269Z,6.90
2018-04-06T06:20:57.261Z,6.90
2018-04-06T06:21:57.328Z,6.80
2018-04-06T06:22:57.241Z,6.50
2018-04-06T06:23:57.273Z,6.40
2018-04-06T06:24:57.331Z,6.30
2018-04-06T06:25:57.285Z,7.00
2018-04-06T06:26:57.782Z,7.20
2018-04-06T06:27:57.306Z,6.70
2018-04-06T06:28:57.285Z,7.00
2018-04-06T06:29:57.284Z,7.30
2018-04-06T06:30:57.315Z,6.50
2018-04-06T06:31:57.258Z,7.00
2018-04-06T06:32:57.328Z,6.80
2018-04-06T06:33:57.279Z,6.50
2018-04-06T06:34:57.303Z,6.30
2018-04-06T06:35:57.303Z,6.80
2018-04-06T06:36:57.286Z,6.40
2018-04-06T06:37:57.334Z,6.80
2018-04-06T06:38:57.325Z,6.10
2018-04-06T06:39:57.300Z,6.30
2018-04-06T06:40:57.411Z,6.30
2018-04-06T06:42:02.093Z,5.60
2018-04-06T06:47:02.131Z,6.50
2018-04-06T06:48:02.034Z,6.50
2018-04-06T06:49:02.044Z,6.90
2018-04-06T06:50:02.045Z,7.00
2018-04-06T06:51:02.044Z,7.40
2018-04-06T06:52:02.058Z,6.20
2018-04-06T06:53:02.139Z,5.90
2018-04-06T06:54:02.045Z,6.30
2018-04-06T06:55:02.061Z,6.30
2018-04-06T06:56:02.068Z,6.00
2018-04-06T06:57:02.062Z,6.10
2018-04-06T06:58:02.098Z,5.90
2018-04-06T06:59:02.061Z,6.00
2018-04-06T07:00:02.066Z,5.90
2018-04-06T07:01:02.062Z,6.20
2018-04-06T07:02:02.073Z,6.60
2018-04-06T07:03:03.008Z,6.10
2018-04-06T07:04:02.093Z,6.00
2018-04-06T07:05:02.129Z,6.30
2018-04-06T07:06:02.100Z,6.90
2018-04-06T07:07:02.099Z,6.10
2018-04-06T07:08:02.094Z,6.40
2018-04-06T07:09:02.126Z,6.10
2018-04-06T07:10:02.102Z,6.40
2018-04-06T07:11:02.098Z,5.90
2018-04-06T07:12:02.120Z,6.20
2018-04-06T07:13:02.120Z,6.10
2018-04-06T07:14:02.167Z,6.30
2018-04-06T07:15:02.132Z,6.00
2018-04-06T07:16:02.220Z,6.80
2018-04-06T07:17:02.162Z,6.30
2018-04-06T07:18:02.136Z,6.70
2018-04-06T07:19:03.005Z,6.20
2018-04-06T07:20:02.146Z,6.20
2018-04-06T07:21:02.147Z,7.50
2018-04-06T07:22:02.174Z,6.60
2018-04-06T07:23:02.173Z,6.20
2018-04-06T07:24:02.240Z,27.60
2018-04-06T07:25:02.171Z,13.00
2018-04-06T07:26:02.198Z,8.70
2018-04-06T07:27:03.093Z,6.30
2018-04-06T07:28:02.207Z,7.00
2018-04-06T07:29:02.203Z,7.10
2018-04-06T07:30:02.232Z,6.70
2018-04-06T07:31:02.197Z,6.10
2018-04-06T07:32:02.237Z,6.90
2018-04-06T07:33:02.227Z,6.90
2018-04-06T07:34:02.209Z,6.70
2018-04-06T07:35:02.253Z,6.70
2018-04-06T07:36:03.058Z,6.60
2018-04-06T07:37:02.268Z,6.30
2018-04-06T07:38:02.240Z,6.10
2018-04-06T07:39:02.247Z,6.80
2018-04-06T07:40:02.257Z,7.20
2018-04-06T07:41:02.255Z,6.90
2018-04-06T07:42:02.256Z,7.80
2018-04-06T07:43:02.269Z,7.60
2018-04-06T07:44:02.304Z,7.50
2018-04-06T07:45:02.277Z,7.70
2018-04-06T07:46:02.289Z,7.70
2018-04-06T07:47:02.438Z,8.10
2018-04-06T07:48:02.314Z,7.90
2018-04-06T07:49:02.296Z,7.10
2018-04-06T07:50:02.330Z,7.20
2018-04-06T07:51:02.306Z,7.40
2018-04-06T07:52:02.327Z,7.00
2018-04-06T07:53:02.352Z,7.00
2018-04-06T07:54:02.353Z,7.30
2018-04-06T07:55:02.340Z,8.00
2018-04-06T07:56:02.364Z,8.40
2018-04-06T07:57:02.525Z,8.20
2018-04-06T07:58:02.355Z,8.60
2018-04-06T07:59:02.376Z,9.60
2018-04-06T08:00:02.586Z,7.80
2018-04-06T08:01:02.415Z,8.60
2018-04-06T08:02:02.400Z,8.10
2018-04-06T08:03:02.416Z,8.20
2018-04-06T08:04:02.399Z,7.10
2018-04-06T08:05:02.412Z,7.30
2018-04-06T08:06:02.454Z,7.60
2018-04-06T08:07:02.460Z,7.70
2018-04-06T08:08:02.449Z,6.50
2018-04-06T08:09:02.455Z,7.10
2018-04-06T08:10:02.466Z,6.90
2018-04-06T08:11:02.464Z,7.10
2018-04-06T08:12:02.486Z,6.80
2018-04-06T08:13:03.174Z,7.30
2018-04-06T08:14:03.194Z,6.90
2018-04-06T08:15:02.543Z,6.60
2018-04-06T08:16:02.496Z,6.40
2018-04-06T08:17:02.506Z,6.90
2018-04-06T08:18:02.646Z,6.50
2018-04-06T08:19:02.558Z,6.40
2018-04-06T08:20:02.661Z,6.20
2018-04-06T08:21:02.565Z,6.60
2018-04-06T08:22:02.567Z,6.80
2018-04-06T08:23:02.589Z,6.90
2018-04-06T08:24:02.578Z,6.90
2018-04-06T08:25:02.588Z,5.90
2018-04-06T08:26:02.574Z,7.00
2018-04-06T08:27:02.594Z,6.00
2018-04-06T08:28:02.640Z,6.30
2018-04-06T08:29:02.736Z,6.50
2018-04-06T08:30:02.678Z,6.40
2018-04-06T08:31:02.658Z,5.70
2018-04-06T08:32:02.651Z,6.30
2018-04-06T08:33:03.668Z,6.20
2018-04-06T08:34:02.675Z,5.50
2018-04-06T08:35:02.675Z,5.40
2018-04-06T08:36:02.707Z,5.90
2018-04-06T08:37:02.694Z,5.90
2018-04-06T08:38:03.560Z,5.50
2018-04-06T08:39:02.725Z,5.80
2018-04-06T08:40:02.739Z,5.60
2018-04-06T08:41:02.759Z,5.40
2018-04-06T08:42:02.739Z,6.00
2018-04-06T08:43:02.750Z,5.30
2018-04-06T08:44:03.557Z,5.80
2018-04-06T08:45:02.786Z,5.50
2018-04-06T08:46:02.841Z,5.20
2018-04-06T08:47:02.809Z,4.80
2018-04-06T08:48:03.601Z,6.00
2018-04-06T08:49:02.841Z,5.60
2018-04-06T08:50:02.820Z,5.80
2018-04-06T08:51:02.836Z,5.50
2018-04-06T08:52:03.559Z,5.70
2018-04-06T08:53:02.860Z,6.10
2018-04-06T08:54:02.870Z,5.10
2018-04-06T08:55:02.875Z,5.70
2018-04-06T08:56:02.897Z,4.70
2018-04-06T08:57:02.950Z,4.80
2018-04-06T08:58:02.950Z,7.00
2018-04-06T08:59:02.929Z,5.80
2018-04-06T09:00:02.942Z,5.60
2018-04-06T09:01:02.966Z,5.30
2018-04-06T09:02:03.063Z,5.40
2018-04-06T09:03:02.982Z,5.40
2018-04-06T09:04:02.996Z,5.90
2018-04-06T09:05:03.040Z,4.90
2018-04-06T09:06:03.065Z,4.90
2018-04-06T09:07:03.041Z,5.00
2018-04-06T09:08:03.058Z,5.20
2018-04-06T09:09:03.080Z,5.10
2018-04-06T09:10:03.069Z,4.80
2018-04-06T09:11:03.123Z,4.30
2018-04-06T09:12:03.211Z,5.10
2018-04-06T09:13:03.090Z,4.90
2018-04-06T09:14:03.165Z,4.80
2018-04-06T09:15:04.097Z,4.50
2018-04-06T09:16:03.260Z,4.20
2018-04-06T09:17:03.202Z,4.80
2018-04-06T09:18:03.222Z,5.00
2018-04-06T09:19:03.267Z,4.70
2018-04-06T09:20:03.284Z,4.50
2018-04-06T09:21:03.241Z,4.80
2018-04-06T09:22:03.218Z,4.80
2018-04-06T09:23:03.284Z,5.10
2018-04-06T09:24:03.260Z,4.50
2018-04-06T09:25:03.273Z,4.50
2018-04-06T09:26:03.324Z,4.90
2018-04-06T09:27:03.277Z,4.00
2018-04-06T09:28:03.358Z,5.10
2018-04-06T09:29:03.311Z,4.80
2018-04-06T09:30:03.316Z,4.20
2018-04-06T09:31:03.363Z,4.20
2018-04-06T09:32:03.385Z,4.40
2018-04-06T09:33:03.397Z,4.50
2018-04-06T09:34:03.366Z,4.50
2018-04-06T09:35:03.379Z,4.50
2018-04-06T09:36:03.398Z,4.20
2018-04-06T09:37:03.429Z,4.70
2018-04-06T09:38:03.481Z,3.70
2018-04-06T09:39:03.454Z,4.20
2018-04-06T09:40:03.467Z,4.20
2018-04-06T09:41:03.462Z,4.20
2018-04-06T09:42:03.484Z,3.20
2018-04-06T09:43:03.512Z,4.10
2018-04-06T09:44:04.113Z,3.50
2018-04-06T09:45:03.517Z,3.40
2018-04-06T09:46:03.558Z,3.30
2018-04-06T09:47:03.566Z,3.50
2018-04-06T09:48:03.559Z,3.50
2018-04-06T09:49:03.595Z,3.50
2018-04-06T09:50:03.639Z,3.30
2018-04-06T09:51:03.601Z,3.30
2018-04-06T09:52:03.701Z,3.50
2018-04-06T09:53:03.670Z,3.30
2018-04-06T09:54:03.654Z,3.40
2018-04-06T09:55:03.713Z,3.20
2018-04-06T09:56:03.720Z,3.60
2018-04-06T09:57:03.710Z,3.00
2018-04-06T09:58:03.725Z,3.30
2018-04-06T09:59:03.725Z,2.90
2018-04-06T10:00:03.766Z,3.20
2018-04-06T10:01:03.779Z,3.10
2018-04-06T10:02:03.763Z,3.00
2018-04-06T10:03:03.787Z,3.20
2018-04-06T10:04:03.785Z,3.60
2018-04-06T10:05:03.817Z,3.10
2018-04-06T10:06:03.839Z,2.80
2018-04-06T10:07:04.613Z,3.00
2018-04-06T10:08:03.876Z,3.30
2018-04-06T10:09:03.885Z,3.20
2018-04-06T10:10:03.890Z,3.40
2018-04-06T10:11:03.908Z,3.30
2018-04-06T10:12:03.920Z,3.20
2018-04-06T10:13:03.965Z,3.20
2018-04-06T10:14:03.943Z,3.10
2018-04-06T10:15:03.952Z,3.20
2018-04-06T10:16:04.006Z,3.30
2018-04-06T10:17:04.090Z,3.00
2018-04-06T10:18:06.826Z,3.40
2018-04-06T10:19:04.027Z,3.50
2018-04-06T10:20:04.031Z,3.10
2018-04-06T10:21:04.054Z,3.20
2018-04-06T10:22:04.129Z,3.80
2018-04-06T10:23:04.089Z,3.10
2018-04-06T10:24:04.172Z,2.80
2018-04-06T10:25:04.239Z,2.90
2018-04-06T10:26:04.182Z,3.00
2018-04-06T10:27:04.186Z,2.80
2018-04-06T10:28:04.223Z,2.90
2018-04-06T10:29:04.319Z,2.90
2018-04-06T10:30:04.291Z,3.10
2018-04-06T10:31:04.281Z,5.50
2018-04-06T10:32:05.131Z,4.00
2018-04-06T10:33:04.274Z,3.50
2018-04-06T10:34:04.312Z,3.50
2018-04-06T10:35:04.271Z,3.20
2018-04-06T10:36:04.293Z,3.20
2018-04-06T10:37:04.297Z,3.50
2018-04-06T10:38:04.312Z,3.50
2018-04-06T10:39:04.386Z,3.90
2018-04-06T10:40:04.357Z,4.20
2018-04-06T10:41:04.370Z,3.90
2018-04-06T10:42:04.377Z,4.10
2018-04-06T10:43:04.397Z,4.10
2018-04-06T10:44:04.417Z,3.60
2018-04-06T10:45:04.477Z,3.60
2018-04-06T10:46:04.495Z,3.50
2018-04-06T10:47:04.472Z,3.70
2018-04-06T10:48:04.473Z,3.60
2018-04-06T10:49:04.516Z,3.40
2018-04-06T10:50:04.507Z,3.30
2018-04-06T10:51:04.526Z,3.40
2018-04-06T10:52:04.574Z,3.30
2018-04-06T10:53:04.563Z,3.20
2018-04-06T10:54:04.570Z,3.30
2018-04-06T10:55:04.638Z,3.80
2018-04-06T10:56:04.618Z,3.80
2018-04-06T10:57:04.637Z,3.30
2018-04-06T10:58:04.639Z,3.50
2018-04-06T10:59:04.686Z,3.70
2018-04-06T11:00:04.693Z,3.60
2018-04-06T11:01:04.702Z,4.10
2018-04-06T11:02:04.718Z,4.00
2018-04-06T11:03:04.718Z,3.70
2018-04-06T11:04:04.726Z,3.90
2018-04-06T11:05:04.754Z,3.70
2018-04-06T11:06:04.808Z,3.00
2018-04-06T11:07:04.863Z,3.80
2018-04-06T11:08:04.819Z,4.40
2018-04-06T11:09:04.810Z,4.00
2018-04-06T11:10:04.852Z,4.40
2018-04-06T11:11:04.849Z,3.80
2018-04-06T11:12:04.865Z,4.20
2018-04-06T11:13:04.881Z,4.40
2018-04-06T11:14:04.887Z,4.20
2018-04-06T11:15:04.896Z,4.20
2018-04-06T11:16:04.930Z,3.90
2018-04-06T11:17:04.967Z,3.90
2018-04-06T11:18:04.968Z,3.60
2018-04-06T11:19:05.009Z,3.80
2018-04-06T11:20:05.025Z,3.90
2018-04-06T11:21:04.981Z,3.60
2018-04-06T11:22:05.016Z,3.60
2018-04-06T11:23:05.068Z,3.60
2018-04-06T11:26:05.065Z,3.80
2018-04-06T11:51:40.564Z,3.30
2018-04-06T11:52:41.929Z,3.40
2018-04-06T11:53:41.728Z,3.60
2018-04-06T11:55:56.147Z,3.70
2018-04-06T11:56:40.316Z,3.20
2018-04-06T11:57:40.403Z,3.60
2018-04-06T11:58:40.589Z,3.50
2018-04-06T11:59:40.378Z,3.60
2018-04-06T12:00:40.307Z,3.90
2018-04-06T12:01:40.334Z,4.00
2018-04-06T12:02:40.312Z,3.80
2018-04-06T12:03:40.329Z,4.10
2018-04-06T12:04:40.331Z,4.80
2018-04-06T12:05:40.429Z,5.60
2018-04-06T12:06:40.358Z,3.90
2018-04-06T12:09:44.555Z,3.60
2018-04-06T12:10:14.059Z,3.90
2018-04-06T12:12:06.213Z,3.80
2018-04-06T12:13:06.535Z,3.50
2018-04-06T12:14:06.161Z,3.20
2018-04-06T12:15:06.175Z,3.20
2018-04-06T12:16:06.199Z,3.90
2018-04-06T12:17:06.180Z,3.30
2018-04-06T12:18:06.209Z,3.80
2018-04-06T12:19:06.226Z,3.70
2018-04-06T12:20:06.228Z,3.20
2018-04-06T12:21:06.219Z,3.20
2018-04-06T12:22:06.222Z,3.40
2018-04-06T12:23:06.245Z,3.40
2018-04-06T12:24:06.212Z,3.50
2018-04-06T12:25:06.269Z,3.80
2018-04-06T12:26:06.213Z,3.50
2018-04-06T12:27:06.266Z,2.90
2018-04-06T12:28:06.228Z,3.70
2018-04-06T12:29:06.243Z,3.50
2018-04-06T12:30:06.228Z,3.00
2018-04-06T12:31:06.260Z,3.20
2018-04-06T12:32:06.238Z,3.30
2018-04-06T12:33:06.238Z,3.20
2018-04-06T12:34:06.256Z,3.10
2018-04-06T12:35:06.263Z,3.90
2018-04-06T12:36:06.271Z,3.00
2018-04-06T12:37:06.257Z,2.60
2018-04-06T12:38:06.275Z,3.10
2018-04-06T12:39:06.288Z,2.90
2018-04-06T12:40:06.265Z,2.80
2018-04-06T12:41:06.293Z,2.90
2018-04-06T12:42:06.278Z,3.10
2018-04-06T12:43:06.334Z,3.10
2018-04-06T12:44:06.342Z,2.90
2018-04-06T12:45:07.013Z,3.50
2018-04-06T12:46:06.279Z,3.20
2018-04-06T12:47:06.278Z,3.30
2018-04-06T12:48:06.330Z,2.90
2018-04-06T12:49:06.288Z,3.10
2018-04-06T12:50:06.312Z,2.70
2018-04-06T12:51:06.311Z,3.10
2018-04-06T12:52:06.297Z,3.20
2018-04-06T12:53:06.308Z,3.20
2018-04-06T12:54:06.315Z,3.70
2018-04-06T12:55:06.350Z,3.40
2018-04-06T12:56:06.305Z,4.50
2018-04-06T12:57:06.315Z,4.60
2018-04-06T12:58:06.323Z,3.00
2018-04-06T12:59:06.321Z,3.00
2018-04-06T13:00:06.334Z,2.50
2018-04-06T13:01:06.345Z,2.70
2018-04-06T13:02:06.333Z,2.50
2018-04-06T13:03:06.362Z,2.60
2018-04-06T13:04:06.342Z,2.90
2018-04-06T13:05:06.392Z,2.40
2018-04-06T13:06:06.355Z,2.70
2018-04-06T13:07:06.355Z,2.70
2018-04-06T13:08:06.369Z,2.70
2018-04-06T13:09:06.393Z,2.80
2018-04-06T13:10:07.035Z,2.10
2018-04-06T13:11:06.390Z,2.30
2018-04-06T13:12:06.381Z,2.90
2018-04-06T13:13:06.364Z,2.30
2018-04-06T13:14:07.044Z,2.70
2018-04-06T13:15:06.399Z,2.80
2018-04-06T13:16:06.399Z,2.70
2018-04-06T13:17:06.427Z,2.60
2018-04-06T13:18:06.385Z,2.60
2018-04-06T13:19:06.400Z,2.90
2018-04-06T13:20:06.483Z,2.30
2018-04-06T13:21:07.038Z,2.80
2018-04-06T13:22:06.398Z,2.40
2018-04-06T13:23:06.413Z,2.80
2018-04-06T13:24:06.419Z,2.60
2018-04-06T13:25:06.447Z,2.30
2018-04-06T13:26:06.429Z,2.40
2018-04-06T13:27:06.454Z,2.60
2018-04-06T13:28:06.463Z,3.10
2018-04-06T13:29:06.571Z,2.50
2018-04-06T13:30:06.477Z,3.20
2018-04-06T13:32:06.465Z,2.60
2018-04-06T13:33:07.040Z,2.50
2018-04-06T13:34:07.044Z,2.30
2018-04-06T13:35:07.075Z,2.60
2018-04-06T13:36:07.631Z,2.70
2018-04-06T13:37:06.450Z,2.50
2018-04-06T13:38:06.457Z,2.30
2018-04-06T13:39:06.446Z,2.90
2018-04-06T13:40:06.477Z,2.60
2018-04-06T13:41:06.505Z,2.50
2018-04-06T13:42:06.555Z,2.70
2018-04-06T13:43:06.493Z,2.80
2018-04-06T13:44:06.532Z,2.70
2018-04-06T13:45:06.507Z,2.50
2018-04-06T13:46:06.476Z,2.30
2018-04-06T13:47:06.497Z,2.60
2018-04-06T13:48:06.475Z,2.30
2018-04-06T13:49:06.510Z,2.60
2018-04-06T13:50:06.880Z,2.10
2018-04-06T13:51:06.499Z,2.30
2018-04-06T13:52:06.517Z,2.50
2018-04-06T13:53:06.519Z,2.60
2018-04-06T13:54:06.500Z,2.50